Time;durP1;ratioP1;P1;durP2;ratioP2;P2;SDS_P1;SDS_P2;PMS_P1;PMS_P2;Temp;Humidity;BMP_temperature;BMP_pressure;BME280_temperature;BME280_humidity;BME280_pressure;Samples;Min_cycle;Max_cycle;Signal;HPM_P1;HPM_P2
2024/03/14 00:02:18;;;;;;;8.60;7.80;;;10.50;99.90;;;;;;5018869;28;20187;-69
2024/03/14 00:04:44;;;;;;;8.83;7.67;;;10.60;99.90;;;;;;5011955;28;20206;-69
2024/03/14 00:07:10;;;;;;;7.77;7.07;;;10.40;99.90;;;;;;5014896;28;20179;-69
2024/03/14 00:09:35;;;;;;;8.43;7.27;;;10.40;99.90;;;;;;5023345;28;20444;-69
2024/03/14 00:12:01;;;;;;;11.03;8.50;;;10.40;99.90;;;;;;5014709;28;20426;-69
2024/03/14 00:14:26;;;;;;;8.10;7.30;;;10.30;99.90;;;;;;5007478;28;20174;-69
2024/03/14 00:16:52;;;;;;;8.73;7.93;;;10.30;99.90;;;;;;5016550;28;20204;-69
2024/03/14 00:19:19;;;;;;;8.77;7.77;;;10.20;99.90;;;;;;5021621;28;20178;-69
2024/03/14 00:21:48;;;;;;;8.27;7.57;;;10.20;99.90;;;;;;5021127;28;20170;-69
2024/03/14 00:24:14;;;;;;;8.50;7.60;;;10.10;99.90;;;;;;5011698;28;20540;-68
2024/03/14 00:26:40;;;;;;;9.23;7.00;;;10.00;99.90;;;;;;5019945;28;21053;-69
2024/03/14 00:29:05;;;;;;;7.97;7.17;;;10.00;99.90;;;;;;5017473;28;20443;-69
2024/03/14 00:31:40;;;;;;;8.40;7.60;;;9.90;99.90;;;;;;5022306;28;20182;-69
2024/03/14 00:34:07;;;;;;;9.53;7.53;;;9.80;99.90;;;;;;5013255;28;20214;-69
2024/03/14 00:36:37;;;;;;;8.40;7.53;;;9.70;99.90;;;;;;5024137;28;20497;-69
2024/03/14 00:39:06;;;;;;;11.77;8.57;;;9.70;99.90;;;;;;5025251;28;20425;-69
2024/03/14 00:41:35;;;;;;;9.03;8.20;;;9.60;99.90;;;;;;5022421;28;20495;-69
2024/03/14 00:44:01;;;;;;;8.90;7.53;;;9.60;99.90;;;;;;5018053;28;20499;-69
2024/03/14 00:46:27;;;;;;;10.67;9.80;;;9.60;99.90;;;;;;5020836;28;20441;-69
2024/03/14 00:48:52;;;;;;;10.37;9.47;;;9.50;99.90;;;;;;5012821;28;20432;-69
2024/03/14 00:51:18;;;;;;;8.97;8.17;;;9.50;99.90;;;;;;5011839;28;20182;-68
2024/03/14 00:53:43;;;;;;;9.70;9.00;;;9.50;99.90;;;;;;5016954;28;20186;-69
2024/03/14 00:56:13;;;;;;;9.60;8.60;;;9.50;99.90;;;;;;5021164;28;20573;-68
2024/03/14 00:58:39;;;;;;;10.03;8.10;;;9.50;99.90;;;;;;5011023;28;20186;-69
2024/03/14 01:01:04;;;;;;;11.03;8.33;;;9.40;99.90;;;;;;5013623;28;20930;-69
2024/03/14 01:03:32;;;;;;;9.23;8.37;;;9.40;99.90;;;;;;5019733;28;20232;-69
2024/03/14 01:05:58;;;;;;;7.93;7.30;;;9.40;99.90;;;;;;5022380;28;20186;-69
2024/03/14 01:08:24;;;;;;;8.70;7.80;;;9.40;99.90;;;;;;5029561;28;20429;-69
2024/03/14 01:10:49;;;;;;;10.77;8.70;;;9.40;99.90;;;;;;5014862;28;20433;-69
2024/03/14 01:13:15;;;;;;;8.83;7.93;;;9.30;99.90;;;;;;5013208;28;20445;-69
2024/03/14 01:15:41;;;;;;;10.73;9.60;;;9.30;99.90;;;;;;5021539;28;20199;-69
2024/03/14 01:18:06;;;;;;;8.77;7.97;;;9.30;99.90;;;;;;5031476;28;20604;-69
2024/03/14 01:20:32;;;;;;;9.00;7.90;;;9.30;99.90;;;;;;5021762;28;20262;-69
2024/03/14 01:22:58;;;;;;;10.43;8.60;;;9.40;99.90;;;;;;5022962;28;20182;-69
2024/03/14 01:25:24;;;;;;;12.10;9.57;;;9.30;99.90;;;;;;5021429;28;20528;-69
2024/03/14 01:27:50;;;;;;;11.43;8.90;;;9.40;99.90;;;;;;5022643;28;20179;-69
2024/03/14 01:30:16;;;;;;;12.63;9.90;;;9.30;99.90;;;;;;5023629;28;20775;-69
2024/03/14 01:32:41;;;;;;;10.20;9.20;;;9.30;99.90;;;;;;5027548;28;20178;-69
2024/03/14 01:35:08;;;;;;;11.53;10.63;;;9.30;99.90;;;;;;5015919;28;20202;-69
2024/03/14 01:37:34;;;;;;;10.43;9.33;;;9.30;99.90;;;;;;5023647;28;20182;-69
2024/03/14 01:40:01;;;;;;;9.50;8.50;;;9.30;99.90;;;;;;5022437;28;20930;-69
2024/03/14 01:42:27;;;;;;;9.47;8.57;;;9.30;99.90;;;;;;5021928;28;20520;-69
2024/03/14 01:45:17;;;;;;;9.80;8.80;;;9.20;99.90;;;;;;5025280;28;20472;-69
2024/03/14 01:47:43;;;;;;;9.47;8.47;;;9.20;99.90;;;;;;5020890;28;20507;-69
2024/03/14 01:50:11;;;;;;;9.40;8.43;;;9.20;99.90;;;;;;5015762;28;20840;-69
2024/03/14 01:52:37;;;;;;;9.33;8.07;;;9.10;99.90;;;;;;5020350;28;20434;-69
2024/03/14 01:55:04;;;;;;;10.10;9.10;;;9.20;99.90;;;;;;5020422;28;20464;-69
2024/03/14 01:57:30;;;;;;;7.30;6.70;;;9.20;99.90;;;;;;5025175;28;20433;-69
2024/03/14 01:59:58;;;;;;;9.03;8.20;;;9.20;99.90;;;;;;5026815;28;20447;-69
2024/03/14 02:02:24;;;;;;;10.27;9.27;;;9.20;99.90;;;;;;5023441;28;20486;-68
2024/03/14 02:04:56;;;;;;;8.07;7.23;;;9.20;99.90;;;;;;5020485;28;20464;-69
2024/03/14 02:07:26;;;;;;;8.80;7.90;;;9.10;99.90;;;;;;5009836;28;20922;-69
2024/03/14 02:09:51;;;;;;;10.93;9.60;;;9.10;99.90;;;;;;5030177;28;20495;-69
2024/03/14 02:12:17;;;;;;;8.50;7.60;;;9.10;99.90;;;;;;5025842;28;20417;-69
2024/03/14 02:14:42;;;;;;;10.03;8.70;;;9.00;99.90;;;;;;5020129;28;20221;-68
2024/03/14 02:17:08;;;;;;;9.63;8.57;;;9.00;99.90;;;;;;5019323;28;20262;-69
2024/03/14 02:19:33;;;;;;;9.00;8.10;;;8.90;99.90;;;;;;5021566;28;20182;-69
2024/03/14 02:22:02;;;;;;;8.40;7.60;;;8.90;99.90;;;;;;5016940;28;20182;-69
2024/03/14 02:24:28;;;;;;;11.60;8.90;;;8.90;99.90;;;;;;5022999;28;20216;-69
2024/03/14 02:26:55;;;;;;;12.80;10.83;;;8.90;99.90;;;;;;5017041;28;20556;-69
2024/03/14 02:29:21;;;;;;;8.23;7.53;;;8.90;99.90;;;;;;5016450;28;20174;-69
2024/03/14 02:31:47;;;;;;;9.43;8.23;;;8.90;99.90;;;;;;5019528;28;20438;-69
2024/03/14 02:34:14;;;;;;;7.30;6.60;;;8.90;99.90;;;;;;5012860;28;20473;-69
2024/03/14 02:36:40;;;;;;;9.20;7.00;;;8.90;99.90;;;;;;5020984;28;20445;-69
2024/03/14 02:39:06;;;;;;;8.17;7.30;;;8.80;99.90;;;;;;5013312;28;20422;-69
2024/03/14 02:41:32;;;;;;;8.80;7.67;;;8.80;99.90;;;;;;5013543;28;20345;-69
2024/03/14 02:43:58;;;;;;;10.07;8.00;;;8.80;99.90;;;;;;5020182;28;21017;-69
2024/03/14 02:46:27;;;;;;;8.43;7.57;;;8.70;99.90;;;;;;5023417;28;20209;-69
2024/03/14 02:48:53;;;;;;;7.17;6.10;;;8.70;99.90;;;;;;5023958;28;20495;-69
2024/03/14 02:51:19;;;;;;;8.37;7.57;;;8.60;99.90;;;;;;5013444;28;20513;-68
2024/03/14 02:53:46;;;;;;;8.03;7.10;;;8.70;99.90;;;;;;5024362;28;20437;-69
2024/03/14 02:56:11;;;;;;;7.90;7.20;;;8.70;99.90;;;;;;5020806;28;20476;-69
2024/03/14 02:58:37;;;;;;;8.10;6.53;;;8.70;99.90;;;;;;5017132;28;20945;-69
2024/03/14 03:01:04;;;;;;;7.37;6.77;;;8.60;99.90;;;;;;5023859;28;20849;-69
2024/03/14 03:03:30;;;;;;;7.53;6.83;;;8.60;99.90;;;;;;5016793;28;20182;-69
2024/03/14 03:05:55;;;;;;;8.80;7.40;;;8.40;99.90;;;;;;5024565;28;20840;-68
2024/03/14 03:08:21;;;;;;;7.43;6.83;;;8.30;99.90;;;;;;5017689;28;20703;-69
2024/03/14 03:10:46;;;;;;;8.63;7.83;;;8.30;99.90;;;;;;5024466;28;20171;-69
2024/03/14 03:13:12;;;;;;;8.33;7.50;;;8.20;99.90;;;;;;5019205;28;20185;-69
2024/03/14 03:15:38;;;;;;;8.70;7.90;;;8.20;99.90;;;;;;5018437;28;20688;-69
2024/03/14 03:18:07;;;;;;;13.07;9.43;;;8.20;99.90;;;;;;5025083;28;20178;-69
2024/03/14 03:20:33;;;;;;;10.07;8.80;;;8.20;99.90;;;;;;5022307;28;20812;-68
2024/03/14 03:23:05;;;;;;;10.00;8.10;;;8.20;99.90;;;;;;5012990;28;20433;-69
2024/03/14 03:25:32;;;;;;;9.50;8.23;;;8.20;99.90;;;;;;5021332;28;20252;-69
2024/03/14 03:28:02;;;;;;;8.67;7.00;;;8.20;99.90;;;;;;5017793;28;20438;-69
2024/03/14 03:30:28;;;;;;;8.47;7.67;;;8.20;99.90;;;;;;5001766;28;20430;-69
2024/03/14 03:32:54;;;;;;;8.63;7.80;;;8.20;99.90;;;;;;5011733;28;20476;-68
2024/03/14 03:35:21;;;;;;;9.70;8.67;;;8.20;99.90;;;;;;5014348;28;20560;-69
2024/03/14 03:37:47;;;;;;;8.50;7.70;;;8.20;99.90;;;;;;5016631;28;20417;-69
2024/03/14 03:40:22;;;;;;;10.63;7.10;;;8.10;99.90;;;;;;5012230;28;20573;-69
2024/03/14 03:42:48;;;;;;;9.43;8.13;;;8.10;99.90;;;;;;5017984;28;20950;-69
2024/03/14 03:45:14;;;;;;;9.00;8.10;;;8.10;99.90;;;;;;5022633;28;20465;-69
2024/03/14 03:47:43;;;;;;;11.70;8.67;;;8.10;99.90;;;;;;5011718;28;20433;-69
2024/03/14 03:50:09;;;;;;;9.80;8.80;;;8.10;99.90;;;;;;5019456;28;20467;-69
2024/03/14 03:52:35;;;;;;;11.30;8.80;;;8.00;99.90;;;;;;5017630;28;20469;-68
2024/03/14 03:55:07;;;;;;;8.80;8.00;;;8.00;99.90;;;;;;5014672;28;20739;-68
2024/03/14 03:57:33;;;;;;;10.53;8.97;;;8.10;99.90;;;;;;5026395;28;20935;-69
2024/03/14 03:59:59;;;;;;;10.00;9.00;;;8.10;99.90;;;;;;5019940;28;20551;-69
2024/03/14 04:02:26;;;;;;;9.47;8.53;;;8.10;99.90;;;;;;5014824;28;20421;-69
2024/03/14 04:04:57;;;;;;;11.43;8.70;;;8.20;99.90;;;;;;5017490;28;20469;-69
2024/03/14 04:07:26;;;;;;;15.10;9.33;;;8.20;99.90;;;;;;4998810;28;20429;-68
2024/03/14 04:09:52;;;;;;;10.33;9.43;;;8.20;99.90;;;;;;5021962;28;20463;-69
2024/03/14 04:12:18;;;;;;;8.53;7.73;;;8.30;99.90;;;;;;5018127;28;20441;-69
2024/03/14 04:14:43;;;;;;;9.93;9.03;;;8.30;99.90;;;;;;5014846;28;20520;-69
2024/03/14 04:17:11;;;;;;;9.47;8.57;;;8.30;99.90;;;;;;5012735;28;20508;-69
2024/03/14 04:19:37;;;;;;;9.07;8.27;;;8.30;99.90;;;;;;5012054;28;20183;-69
2024/03/14 04:22:05;;;;;;;9.30;8.47;;;8.30;99.90;;;;;;5011898;28;20468;-69
2024/03/14 04:24:34;;;;;;;9.73;8.17;;;8.20;99.90;;;;;;5016821;28;20453;-69
2024/03/14 04:27:00;;;;;;;9.23;8.30;;;8.20;99.90;;;;;;5012690;28;20469;-69
2024/03/14 04:29:26;;;;;;;8.90;8.00;;;8.20;99.90;;;;;;5020703;28;20447;-69
2024/03/14 04:31:53;;;;;;;10.53;9.47;;;8.10;99.90;;;;;;5015856;28;20236;-69
2024/03/14 04:34:20;;;;;;;10.17;9.03;;;8.00;99.90;;;;;;5019572;28;20445;-69
2024/03/14 04:36:47;;;;;;;10.10;8.63;;;7.90;99.90;;;;;;5010825;28;21001;-69
2024/03/14 04:39:14;;;;;;;11.23;8.53;;;7.90;99.90;;;;;;5027395;28;20436;-69
2024/03/14 04:41:40;;;;;;;9.77;8.80;;;7.80;99.90;;;;;;5023347;28;20441;-69
2024/03/14 04:44:07;;;;;;;10.30;9.07;;;7.80;99.90;;;;;;5023004;28;20499;-69
2024/03/14 04:46:33;;;;;;;10.20;9.00;;;7.80;99.90;;;;;;5016388;28;20449;-69
2024/03/14 04:48:58;;;;;;;10.33;9.20;;;7.90;99.90;;;;;;5002752;28;20439;-69
2024/03/14 04:51:24;;;;;;;8.80;8.00;;;7.90;99.90;;;;;;5015564;28;20194;-68
2024/03/14 04:53:50;;;;;;;11.57;8.77;;;7.80;99.90;;;;;;5014610;28;20233;-69
2024/03/14 04:56:16;;;;;;;9.13;8.27;;;7.80;99.90;;;;;;5023464;28;20286;-69
2024/03/14 04:58:41;;;;;;;9.90;8.87;;;7.80;99.90;;;;;;5014344;28;20524;-69
2024/03/14 05:01:07;;;;;;;13.57;10.80;;;7.70;99.90;;;;;;5019136;28;20179;-69
2024/03/14 05:03:33;;;;;;;12.57;10.30;;;7.50;99.90;;;;;;5021565;28;20668;-69
2024/03/14 05:05:58;;;;;;;12.67;10.53;;;7.50;99.90;;;;;;5020353;28;20198;-69
2024/03/14 05:08:24;;;;;;;12.77;11.10;;;7.50;99.90;;;;;;5014379;28;20171;-68
2024/03/14 05:10:50;;;;;;;13.80;11.80;;;7.50;99.90;;;;;;5014875;28;20175;-69
2024/03/14 05:13:16;;;;;;;12.93;10.70;;;7.40;99.90;;;;;;5014402;28;20495;-69
2024/03/14 05:15:41;;;;;;;15.37;11.87;;;7.50;99.90;;;;;;5022430;28;20199;-69
2024/03/14 05:18:08;;;;;;;16.00;11.97;;;7.40;99.90;;;;;;5016627;28;20645;-69
2024/03/14 05:20:33;;;;;;;17.00;13.40;;;7.40;99.90;;;;;;5021654;28;20201;-69
2024/03/14 05:22:59;;;;;;;15.90;12.03;;;7.40;99.90;;;;;;5014841;28;20505;-68
2024/03/14 05:25:24;;;;;;;19.33;13.50;;;7.40;99.90;;;;;;5018792;28;20221;-69
2024/03/14 05:27:50;;;;;;;16.77;12.57;;;7.40;99.90;;;;;;5020592;28;20258;-69
2024/03/14 05:30:18;;;;;;;21.10;14.73;;;7.40;99.90;;;;;;5022151;28;20586;-69
2024/03/14 05:32:46;;;;;;;19.00;14.70;;;7.40;99.90;;;;;;5019548;28;20454;-69
2024/03/14 05:35:12;;;;;;;21.30;14.17;;;7.40;99.90;;;;;;5019240;28;20449;-69
2024/03/14 05:37:37;;;;;;;19.33;14.00;;;7.40;99.90;;;;;;5014045;28;20966;-69
2024/03/14 05:40:04;;;;;;;18.53;12.87;;;7.50;99.90;;;;;;5032193;28;20193;-69
2024/03/14 05:42:31;;;;;;;21.57;15.03;;;7.50;99.90;;;;;;5024267;28;20187;-69
2024/03/14 05:44:57;;;;;;;20.63;14.30;;;7.60;99.90;;;;;;5017963;28;20472;-69
2024/03/14 05:47:24;;;;;;;18.00;14.63;;;7.70;99.90;;;;;;5025371;28;21232;-69
2024/03/14 05:49:49;;;;;;;18.63;13.80;;;7.70;99.90;;;;;;5017528;28;20553;-69
2024/03/14 05:52:15;;;;;;;21.63;15.00;;;7.70;99.90;;;;;;5014691;28;20504;-69
2024/03/14 05:54:40;;;;;;;18.77;13.73;;;7.70;99.90;;;;;;5019343;28;20196;-69
2024/03/14 05:57:06;;;;;;;17.20;14.17;;;7.80;99.90;;;;;;5025213;28;20171;-69
2024/03/14 05:59:32;;;;;;;18.77;14.40;;;7.90;99.90;;;;;;5022145;28;20229;-69
2024/03/14 06:01:57;;;;;;;20.30;13.13;;;7.90;99.90;;;;;;5019106;28;20187;-69
2024/03/14 06:04:23;;;;;;;21.23;15.57;;;7.90;99.90;;;;;;5021047;28;20199;-69
2024/03/14 06:06:49;;;;;;;22.17;14.97;;;7.80;99.90;;;;;;5021110;28;20551;-69
2024/03/14 06:09:15;;;;;;;20.30;14.20;;;7.80;99.90;;;;;;5014081;28;20171;-69
2024/03/14 06:11:42;;;;;;;23.00;14.80;;;7.80;99.90;;;;;;5015557;28;20186;-69
2024/03/14 06:14:07;;;;;;;24.10;15.07;;;7.90;99.90;;;;;;5020776;28;20441;-69
2024/03/14 06:16:33;;;;;;;21.27;16.80;;;7.90;99.90;;;;;;5019663;28;20540;-69
2024/03/14 06:18:59;;;;;;;20.50;14.17;;;7.90;99.90;;;;;;5013604;28;20657;-69
2024/03/14 06:21:24;;;;;;;20.40;13.93;;;8.00;99.90;;;;;;5012290;28;20187;-69
2024/03/14 06:23:51;;;;;;;26.30;16.80;;;8.10;99.90;;;;;;5021486;28;20175;-69
2024/03/14 06:26:17;;;;;;;20.70;16.27;;;8.20;99.90;;;;;;5013563;28;20306;-69
2024/03/14 06:28:42;;;;;;;20.97;15.20;;;8.20;99.90;;;;;;5021707;28;20464;-69
2024/03/14 06:31:09;;;;;;;17.97;16.00;;;8.20;99.90;;;;;;5016255;28;20775;-69
2024/03/14 06:33:35;;;;;;;21.23;15.53;;;8.20;99.90;;;;;;5003787;28;20824;-69
2024/03/14 06:36:00;;;;;;;23.10;17.20;;;8.30;99.90;;;;;;5019813;28;20548;-69
2024/03/14 06:38:26;;;;;;;19.87;14.33;;;8.30;99.90;;;;;;5022047;28;20178;-69
2024/03/14 06:40:53;;;;;;;20.13;15.30;;;8.20;99.90;;;;;;5018742;28;20162;-69
2024/03/14 06:43:21;;;;;;;22.80;15.97;;;8.30;99.90;;;;;;5016033;28;20449;-69
2024/03/14 06:45:48;;;;;;;24.90;17.73;;;8.30;99.90;;;;;;5018329;28;20473;-69
2024/03/14 06:48:14;;;;;;;22.40;15.00;;;8.30;99.90;;;;;;5025020;28;20814;-69
2024/03/14 06:50:39;;;;;;;23.63;16.40;;;8.30;99.90;;;;;;5020404;28;20430;-69
2024/03/14 06:53:05;;;;;;;21.80;16.03;;;8.30;99.90;;;;;;5016291;28;20429;-69
2024/03/14 06:55:31;;;;;;;26.80;17.60;;;8.30;99.90;;;;;;5023104;28;20203;-69
2024/03/14 06:57:57;;;;;;;25.30;17.50;;;8.30;99.90;;;;;;5020642;28;20257;-69
2024/03/14 07:00:24;;;;;;;21.13;14.67;;;8.30;99.90;;;;;;5017006;28;20237;-69
2024/03/14 07:02:51;;;;;;;23.30;15.67;;;8.40;99.90;;;;;;5029639;28;20248;-69
2024/03/14 07:05:17;;;;;;;22.60;14.63;;;8.50;99.90;;;;;;5019003;28;20980;-69
2024/03/14 07:07:46;;;;;;;18.60;14.40;;;8.50;99.90;;;;;;5020080;28;20429;-69
2024/03/14 07:10:14;;;;;;;20.10;14.10;;;8.60;99.90;;;;;;5013353;28;20175;-69
2024/03/14 07:12:45;;;;;;;22.00;14.87;;;8.60;99.90;;;;;;5015145;28;20453;-69
2024/03/14 07:15:12;;;;;;;22.67;14.60;;;8.80;99.90;;;;;;5020060;28;20488;-69
2024/03/14 07:17:37;;;;;;;20.50;14.00;;;9.00;99.90;;;;;;5017301;28;20479;-69
2024/03/14 07:20:10;;;;;;;17.70;13.50;;;9.00;99.90;;;;;;5014238;28;20970;-69
2024/03/14 07:22:43;;;;;;;19.80;13.20;;;9.10;99.90;;;;;;5020424;28;20659;-69
2024/03/14 07:25:13;;;;;;;17.80;12.70;;;9.10;99.90;;;;;;5017898;28;20544;-68
2024/03/14 07:27:39;;;;;;;17.20;11.67;;;9.20;99.90;;;;;;5017465;28;20433;-68
2024/03/14 07:30:07;;;;;;;16.00;12.70;;;9.20;99.90;;;;;;5021309;28;21363;-69
2024/03/14 07:32:35;;;;;;;12.27;9.97;;;9.40;99.90;;;;;;5029587;28;20174;-69
2024/03/14 07:35:02;;;;;;;14.30;11.10;;;9.50;99.90;;;;;;5032352;28;20437;-69
2024/03/14 07:37:28;;;;;;;16.23;12.00;;;9.70;99.90;;;;;;5014632;28;20432;-69
2024/03/14 07:39:54;;;;;;;17.83;13.67;;;9.70;99.90;;;;;;5022722;28;20429;-69
2024/03/14 07:42:20;;;;;;;13.93;11.57;;;9.80;99.90;;;;;;5023299;28;20448;-70
2024/03/14 07:44:45;;;;;;;11.70;9.53;;;10.00;99.90;;;;;;5024675;28;20191;-69
2024/03/14 07:47:19;;;;;;;15.00;11.80;;;9.90;99.90;;;;;;5020642;28;20440;-70
2024/03/14 07:49:48;;;;;;;11.77;10.13;;;10.10;99.90;;;;;;5017304;28;20166;-69
2024/03/14 07:52:14;;;;;;;12.00;9.90;;;10.50;99.90;;;;;;5020194;28;20430;-69
2024/03/14 07:54:40;;;;;;;11.20;9.70;;;10.50;99.90;;;;;;5023811;28;20500;-68
2024/03/14 07:57:06;;;;;;;12.83;11.30;;;10.50;99.90;;;;;;5015185;28;20788;-69
2024/03/14 07:59:32;;;;;;;13.53;11.17;;;10.50;99.90;;;;;;5019523;28;20434;-70
2024/03/14 08:01:58;;;;;;;11.13;9.37;;;10.60;99.90;;;;;;5022373;28;20181;-69
2024/03/14 08:04:24;;;;;;;11.93;9.80;;;10.70;99.90;;;;;;5032006;28;20480;-70
2024/03/14 08:06:50;;;;;;;11.60;8.00;;;10.70;99.90;;;;;;5023163;28;20530;-69
2024/03/14 08:09:19;;;;;;;9.60;8.60;;;10.80;99.90;;;;;;5022448;28;20562;-69
2024/03/14 08:11:47;;;;;;;10.23;9.13;;;11.00;99.90;;;;;;5011812;28;20915;-69
2024/03/14 08:14:12;;;;;;;16.13;9.00;;;11.40;99.90;;;;;;5029296;28;20425;-69
2024/03/14 08:16:38;;;;;;;9.97;8.00;;;11.60;99.90;;;;;;5026020;28;20497;-68
2024/03/14 08:19:09;;;;;;;9.93;8.93;;;12.00;99.90;;;;;;5031897;28;20187;-70
2024/03/14 08:21:34;;;;;;;8.73;6.90;;;12.30;99.90;;;;;;5017144;28;20179;-68
2024/03/14 08:24:09;;;;;;;8.73;7.17;;;12.30;99.90;;;;;;5022844;28;20468;-70
2024/03/14 08:26:36;;;;;;;8.00;6.83;;;12.40;99.90;;;;;;5025463;28;20208;-70
2024/03/14 08:29:02;;;;;;;7.60;6.83;;;12.30;99.90;;;;;;5026976;28;20523;-71
2024/03/14 08:31:28;;;;;;;10.27;8.97;;;12.30;99.90;;;;;;5015274;28;20854;-71
2024/03/14 08:33:55;;;;;;;7.73;6.93;;;12.40;99.90;;;;;;5021452;28;20473;-69
2024/03/14 08:36:21;;;;;;;7.53;6.73;;;12.40;99.90;;;;;;5018150;28;20210;-71
2024/03/14 08:38:48;;;;;;;7.00;6.30;;;12.40;99.90;;;;;;5015082;28;20433;-71
2024/03/14 08:41:14;;;;;;;7.17;6.47;;;12.30;99.90;;;;;;5028113;28;20468;-70
2024/03/14 08:43:40;;;;;;;6.83;6.00;;;12.30;99.90;;;;;;5015940;28;20853;-69
2024/03/14 08:46:06;;;;;;;6.57;5.97;;;12.50;99.90;;;;;;5017252;28;20191;-71
2024/03/14 08:48:33;;;;;;;6.73;5.33;;;12.90;99.90;;;;;;5023556;28;20464;-70
2024/03/14 08:50:59;;;;;;;6.60;5.70;;;13.40;99.90;;;;;;5027580;28;20440;-72
2024/03/14 08:53:30;;;;;;;7.07;6.03;;;13.80;99.90;;;;;;5024584;28;20436;-70
2024/03/14 08:55:56;;;;;;;6.70;6.10;;;13.90;99.90;;;;;;5018478;28;20453;-70
2024/03/14 08:58:25;;;;;;;6.40;5.50;;;13.80;99.90;;;;;;5028655;28;20489;-71
2024/03/14 09:00:53;;;;;;;5.97;5.47;;;13.90;99.90;;;;;;5022831;28;20178;-71
2024/03/14 09:03:19;;;;;;;6.57;5.97;;;13.90;99.90;;;;;;5020279;28;20805;-70
2024/03/14 09:05:45;;;;;;;5.73;5.13;;;14.00;99.90;;;;;;5019797;28;20461;-69
2024/03/14 09:08:18;;;;;;;5.87;5.37;;;14.10;99.90;;;;;;5016453;28;20231;-69
2024/03/14 09:10:45;;;;;;;5.97;5.37;;;14.30;99.90;;;;;;5019034;28;20512;-70
2024/03/14 09:13:10;;;;;;;5.37;4.97;;;14.20;99.90;;;;;;5015508;28;20904;-69
2024/03/14 09:15:36;;;;;;;6.17;5.67;;;14.70;99.90;;;;;;5014577;28;20490;-70
2024/03/14 09:18:03;;;;;;;7.27;6.57;;;14.60;99.90;;;;;;5020655;28;20187;-70
2024/03/14 09:20:28;;;;;;;5.90;5.30;;;14.90;99.90;;;;;;5019289;28;20670;-70
2024/03/14 09:22:55;;;;;;;9.67;6.40;;;15.30;99.90;;;;;;5017078;28;20432;-70
2024/03/14 09:25:22;;;;;;;5.77;5.27;;;15.90;99.90;;;;;;5016392;28;20210;-69
2024/03/14 09:27:48;;;;;;;6.10;5.50;;;16.70;99.90;;;;;;5019075;28;20456;-69
2024/03/14 09:30:14;;;;;;;6.13;5.53;;;17.20;99.90;;;;;;5020319;28;20789;-69
2024/03/14 09:32:40;;;;;;;6.33;5.27;;;17.90;99.90;;;;;;5014952;28;20425;-69
2024/03/14 09:35:07;;;;;;;5.07;4.67;;;17.80;99.90;;;;;;5008496;28;20200;-68
2024/03/14 09:37:33;;;;;;;4.73;4.33;;;17.00;99.90;;;;;;5023022;28;20430;-68
2024/03/14 09:39:59;;;;;;;5.90;5.30;;;16.70;99.90;;;;;;5014131;28;20867;-69
2024/03/14 09:42:25;;;;;;;4.43;4.13;;;16.60;99.90;;;;;;5020038;28;20608;-68
2024/03/14 09:44:52;;;;;;;3.97;3.60;;;16.80;99.90;;;;;;5024384;28;20464;-69
2024/03/14 09:47:29;;;;;;;7.37;4.43;;;16.80;99.90;;;;;;5011930;28;20437;-69
2024/03/14 09:49:55;;;;;;;3.23;3.03;;;16.10;99.90;;;;;;5015751;28;20434;-69
2024/03/14 09:52:20;;;;;;;3.90;3.60;;;15.80;99.90;;;;;;5011297;28;20504;-69
2024/03/14 09:54:49;;;;;;;3.53;3.23;;;15.50;99.90;;;;;;5011084;28;20446;-69
2024/03/14 09:57:16;;;;;;;3.70;3.40;;;15.80;99.90;;;;;;5011869;28;20189;-69
2024/03/14 09:59:42;;;;;;;3.97;3.67;;;16.10;99.90;;;;;;5021432;28;20433;-69
2024/03/14 10:02:16;;;;;;;4.80;3.37;;;16.40;99.90;;;;;;5016287;28;20812;-69
2024/03/14 10:04:43;;;;;;;3.40;2.87;;;16.40;99.90;;;;;;5013527;28;20211;-69
2024/03/14 10:07:09;;;;;;;2.97;2.77;;;16.70;99.90;;;;;;5030276;28;20436;-69
2024/03/14 10:09:35;;;;;;;3.47;3.27;;;16.80;99.90;;;;;;5024006;28;20446;-69
2024/03/14 10:12:02;;;;;;;2.70;2.50;;;16.80;99.90;;;;;;5016804;28;20425;-68
2024/03/14 10:14:28;;;;;;;3.23;3.03;;;16.90;99.90;;;;;;5010527;28;20454;-69
2024/03/14 10:16:54;;;;;;;2.53;2.43;;;17.00;99.90;;;;;;5010253;28;20466;-69
2024/03/14 10:19:26;;;;;;;2.40;2.30;;;17.00;99.90;;;;;;5019165;28;20448;-69
2024/03/14 10:21:54;;;;;;;3.07;2.87;;;18.20;99.90;;;;;;5013136;28;20448;-69
2024/03/14 10:24:21;;;;;;;2.63;2.43;;;18.30;99.90;;;;;;5020630;28;20461;-68
2024/03/14 10:26:48;;;;;;;2.73;2.53;;;18.50;99.90;;;;;;5022341;28;20480;-68
2024/03/14 10:29:17;;;;;;;6.10;2.33;;;19.70;99.90;;;;;;5026168;28;20433;-68
2024/03/14 10:31:43;;;;;;;2.03;1.93;;;20.40;99.90;;;;;;5019704;28;20480;-69
2024/03/14 10:34:08;;;;;;;1.90;1.80;;;21.10;99.90;;;;;;5020476;28;20441;-69
2024/03/14 10:36:39;;;;;;;2.13;2.03;;;22.40;94.20;;;;;;5006012;28;20469;-69
2024/03/14 10:39:10;;;;;;;2.30;2.20;;;22.70;91.20;;;;;;5011312;28;20230;-69
2024/03/14 10:41:35;;;;;;;1.83;1.73;;;23.00;88.80;;;;;;5017586;28;20431;-69
2024/03/14 10:44:03;;;;;;;1.50;1.40;;;22.70;86.70;;;;;;5021865;28;20950;-68
2024/03/14 10:46:30;;;;;;;2.00;1.70;;;22.70;86.20;;;;;;5017430;28;20222;-69
2024/03/14 10:48:56;;;;;;;1.90;1.70;;;24.00;78.70;;;;;;5020964;28;20949;-69
2024/03/14 10:51:22;;;;;;;1.50;1.40;;;24.70;71.50;;;;;;5023160;28;20422;-68
2024/03/14 10:53:50;;;;;;;1.90;1.80;;;22.60;76.60;;;;;;5023452;28;20540;-68
2024/03/14 10:56:16;;;;;;;3.53;1.53;;;21.60;89.40;;;;;;5015753;28;20468;-68
2024/03/14 10:58:48;;;;;;;1.50;1.40;;;21.80;87.90;;;;;;5016767;28;20429;-69
2024/03/14 11:01:15;;;;;;;1.90;1.80;;;21.70;85.90;;;;;;5013920;28;20173;-68
2024/03/14 11:03:41;;;;;;;2.00;1.90;;;21.40;89.40;;;;;;5020318;28;20485;-69
2024/03/14 11:06:14;;;;;;;2.20;2.00;;;21.20;91.40;;;;;;5017082;28;20477;-69
2024/03/14 11:08:45;;;;;;;1.80;1.70;;;20.00;94.00;;;;;;5018376;28;20633;-68
2024/03/14 11:11:12;;;;;;;1.87;1.77;;;19.60;97.00;;;;;;5013165;28;20422;-67
2024/03/14 11:13:44;;;;;;;2.80;1.73;;;20.60;93.90;;;;;;5008843;28;20583;-66
2024/03/14 11:16:13;;;;;;;2.50;1.80;;;21.10;92.80;;;;;;5008875;28;20461;-67
2024/03/14 11:18:43;;;;;;;2.20;2.00;;;21.10;92.30;;;;;;5011065;28;20441;-67
2024/03/14 11:21:12;;;;;;;1.73;1.63;;;20.90;93.60;;;;;;5011483;28;20508;-66
2024/03/14 11:23:40;;;;;;;1.57;1.47;;;20.20;92.80;;;;;;5012350;28;20523;-67
2024/03/14 11:26:13;;;;;;;1.47;1.37;;;19.30;97.60;;;;;;5010497;28;20481;-67
2024/03/14 11:28:41;;;;;;;1.80;1.37;;;19.00;99.90;;;;;;5019215;28;20559;-68
2024/03/14 11:31:06;;;;;;;1.53;1.43;;;19.50;98.90;;;;;;5015093;28;20891;-68
2024/03/14 11:33:32;;;;;;;1.70;1.60;;;20.00;96.90;;;;;;5012877;28;20550;-68
2024/03/14 11:35:58;;;;;;;1.50;1.40;;;19.90;94.60;;;;;;5022615;28;20199;-69
2024/03/14 11:38:32;;;;;;;1.37;1.20;;;20.30;94.10;;;;;;5023048;28;20513;-69
2024/03/14 11:41:03;;;;;;;2.00;1.43;;;20.60;92.60;;;;;;5018284;28;20736;-69
2024/03/14 11:43:30;;;;;;;1.60;1.50;;;21.10;91.90;;;;;;5023432;28;20466;-69
2024/03/14 11:45:58;;;;;;;1.80;1.70;;;23.00;81.60;;;;;;5013356;28;20469;-70
2024/03/14 11:48:25;;;;;;;2.07;1.97;;;23.50;75.40;;;;;;5010814;28;20784;-67
2024/03/14 11:50:52;;;;;;;1.60;1.50;;;25.80;69.70;;;;;;5011637;28;20444;-68
2024/03/14 11:53:20;;;;;;;2.00;1.30;;;27.10;57.20;;;;;;5011985;28;20923;-67
2024/03/14 11:55:46;;;;;;;1.30;1.20;;;28.20;52.30;;;;;;5010814;28;20916;-67
2024/03/14 11:58:16;;;;;;;0.80;0.80;;;27.20;49.40;;;;;;5013770;28;20441;-66
2024/03/14 12:00:48;;;;;;;1.47;1.37;;;26.30;49.10;;;;;;5005176;28;20805;-67
2024/03/14 12:03:15;;;;;;;1.20;1.20;;;27.60;47.70;;;;;;5018937;28;20508;-66
2024/03/14 12:05:44;;;;;;;1.43;1.00;;;28.00;47.00;;;;;;5020549;28;20856;-66
2024/03/14 12:08:15;;;;;;;1.20;1.20;;;28.70;45.20;;;;;;5021611;28;20441;-66
2024/03/14 12:10:41;;;;;;;1.37;1.27;;;28.40;43.00;;;;;;5022009;28;20448;-66
2024/03/14 12:13:21;;;;;;;1.63;1.53;;;28.40;42.50;;;;;;5015348;28;20533;-66
2024/03/14 12:15:57;;;;;;;1.07;1.07;;;28.80;41.80;;;;;;5013511;28;20986;-66
2024/03/14 12:18:23;;;;;;;1.47;1.40;;;28.50;39.90;;;;;;5009083;28;20445;-66
2024/03/14 12:20:49;;;;;;;1.90;1.80;;;29.00;39.60;;;;;;5010545;28;20934;-67
2024/03/14 12:23:14;;;;;;;1.50;1.40;;;30.70;38.10;;;;;;5019197;28;20660;-67
2024/03/14 12:25:42;;;;;;;1.50;1.40;;;32.80;34.10;;;;;;5017738;28;20210;-66
2024/03/14 12:28:10;;;;;;;1.10;1.10;;;33.10;31.40;;;;;;5012590;28;20167;-67
2024/03/14 12:30:39;;;;;;;1.20;1.20;;;32.50;31.40;;;;;;5011144;28;20943;-67
2024/03/14 12:33:06;;;;;;;1.50;1.40;;;33.00;30.00;;;;;;5009726;28;20470;-67
2024/03/14 12:35:33;;;;;;;1.67;1.20;;;31.50;29.40;;;;;;4992151;28;20466;-66
2024/03/14 12:38:01;;;;;;;2.40;1.50;;;28.90;31.80;;;;;;5008054;28;20975;-66
2024/03/14 12:40:29;;;;;;;1.67;1.43;;;28.30;34.30;;;;;;5013482;28;20503;-67
2024/03/14 12:42:55;;;;;;;1.10;1.10;;;30.00;33.00;;;;;;5017506;28;21007;-66
2024/03/14 12:45:23;;;;;;;1.50;1.40;;;31.20;30.50;;;;;;5010888;28;20523;-66